createdAt,value
2022-08-17T00:01:57.322Z,99297.81
2022-08-17T00:04:50.682Z,99303.28
2022-08-17T00:07:38.677Z,99294.06
2022-08-17T00:10:27.492Z,99292.38
2022-08-17T00:13:26.148Z,99294.69
2022-08-17T00:16:23.056Z,99298.63
2022-08-17T00:19:32.758Z,99310.19
2022-08-17T00:22:34.430Z,99312.47
2022-08-17T00:25:23.886Z,99306.56
2022-08-17T00:28:14.969Z,99301.44
2022-08-17T00:31:07.000Z,99287.16
2022-08-17T00:33:54.863Z,99296.94
2022-08-17T00:36:42.801Z,99293.00
2022-08-17T00:39:30.960Z,99298.81
2022-08-17T00:42:20.004Z,99288.09
2022-08-17T00:45:12.035Z,99302.25
2022-08-17T00:47:59.921Z,99292.84
2022-08-17T00:51:12.926Z,99285.28
2022-08-17T00:54:23.016Z,99307.72
2022-08-17T00:57:18.668Z,99300.34
2022-08-17T01:00:35.447Z,99299.78
2022-08-17T01:03:26.212Z,99299.06
2022-08-17T01:06:14.157Z,99296.47
2022-08-17T01:09:03.516Z,99292.66
2022-08-17T01:11:52.422Z,99297.75
2022-08-17T01:14:40.917Z,99286.50
2022-08-17T01:17:28.880Z,99277.63
2022-08-17T01:20:17.045Z,99269.06
2022-08-17T01:23:05.126Z,99297.88
2022-08-17T01:25:57.498Z,99296.94
2022-08-17T01:28:54.621Z,99275.09
2022-08-17T01:31:49.837Z,99302.75
2022-08-17T01:34:43.580Z,99298.41
2022-08-17T01:37:42.451Z,99295.81
2022-08-17T01:40:41.113Z,99296.03
2022-08-17T01:43:45.224Z,99299.41
2022-08-17T01:46:37.416Z,99305.91
2022-08-17T01:49:25.348Z,99304.19
2022-08-17T01:52:13.751Z,99293.03
2022-08-17T01:55:02.330Z,99301.47
2022-08-17T01:57:50.154Z,99296.41
2022-08-17T02:00:59.665Z,99287.81
2022-08-17T02:03:59.331Z,99284.72
2022-08-17T02:06:54.365Z,99282.38
2022-08-17T02:09:43.982Z,99284.91
2022-08-17T02:12:40.457Z,99272.34
2022-08-17T02:15:29.400Z,99278.66
2022-08-17T02:18:17.353Z,99280.41
2022-08-17T02:21:05.885Z,99273.09
2022-08-17T02:23:55.077Z,99284.28
2022-08-17T02:26:43.294Z,99281.31
2022-08-17T02:29:31.377Z,99287.19
2022-08-17T02:32:28.455Z,99283.41
2022-08-17T02:35:16.445Z,99276.84
2022-08-17T02:38:08.267Z,99281.94
2022-08-17T02:40:56.229Z,99258.16
2022-08-17T02:43:44.041Z,99276.84
2022-08-17T02:46:32.712Z,99284.94
2022-08-17T02:49:20.558Z,99286.03
2022-08-17T02:52:11.422Z,99279.16
2022-08-17T02:54:59.223Z,99277.88
2022-08-17T02:57:47.811Z,99278.34
2022-08-17T03:00:43.981Z,99286.78
2022-08-17T03:03:31.923Z,99289.06
2022-08-17T03:06:19.839Z,99287.50
2022-08-17T03:09:07.933Z,99294.16
2022-08-17T03:11:56.226Z,99286.03
2022-08-17T03:14:44.848Z,99292.34
2022-08-17T03:17:32.748Z,99291.88
2022-08-17T03:20:21.676Z,99289.84
2022-08-17T03:23:10.055Z,99299.75
2022-08-17T03:26:01.975Z,99299.50
2022-08-17T03:28:50.065Z,99306.31
2022-08-17T03:31:37.909Z,99300.97
2022-08-17T03:34:25.738Z,99271.75
2022-08-17T03:37:13.607Z,99275.84
2022-08-17T03:40:02.895Z,99279.66
2022-08-17T03:42:53.367Z,99295.69
2022-08-17T03:46:03.047Z,99291.88
2022-08-17T03:49:10.802Z,99294.19
2022-08-17T03:52:17.106Z,99290.13
2022-08-17T03:55:35.860Z,99300.56
2022-08-17T03:58:24.377Z,99296.75
2022-08-17T04:01:12.887Z,99293.41
2022-08-17T04:04:00.751Z,99288.34
2022-08-17T04:06:48.639Z,99282.97
2022-08-17T04:09:36.622Z,99282.78
2022-08-17T04:12:25.610Z,99288.63
2022-08-17T04:15:13.660Z,99282.22
2022-08-17T04:18:01.535Z,99283.03
2022-08-17T04:20:49.379Z,99271.06
2022-08-17T04:23:37.943Z,99276.97
2022-08-17T04:26:53.039Z,99285.06
2022-08-17T04:29:49.933Z,99285.59
2022-08-17T04:33:06.306Z,99294.31
2022-08-17T04:36:02.817Z,99284.13
2022-08-17T04:38:50.750Z,99285.09
2022-08-17T04:42:17.109Z,99284.59
2022-08-17T04:45:05.646Z,99283.28
2022-08-17T04:47:53.582Z,99271.28
2022-08-17T04:50:46.877Z,99294.97
2022-08-17T04:53:34.879Z,99294.66
2022-08-17T04:56:25.808Z,99299.72
2022-08-17T04:59:21.084Z,99306.53
2022-08-17T05:02:08.950Z,99317.19
2022-08-17T05:04:56.874Z,99312.91
2022-08-17T05:07:44.982Z,99310.41
2022-08-17T05:10:39.126Z,99316.25
2022-08-17T05:13:33.537Z,99322.06
2022-08-17T05:16:23.454Z,99335.53
2022-08-17T05:19:11.310Z,99325.09
2022-08-17T05:21:59.198Z,99327.06
2022-08-17T05:24:53.442Z,99326.75
2022-08-17T05:27:41.883Z,99324.56
2022-08-17T05:30:31.279Z,99329.97
2022-08-17T05:33:29.496Z,99335.19
2022-08-17T05:36:43.659Z,99303.47
2022-08-17T05:39:25.614Z,99329.50
2022-08-17T05:42:19.562Z,99339.84
2022-08-17T05:45:09.601Z,99337.06
2022-08-17T05:47:57.656Z,99320.97
2022-08-17T05:51:25.798Z,99321.59
2022-08-17T05:54:55.139Z,99328.63
2022-08-17T05:58:06.831Z,99305.69
2022-08-17T06:01:31.731Z,99331.97
2022-08-17T06:04:36.062Z,99326.50
2022-08-17T06:07:29.479Z,99330.69
2022-08-17T06:10:43.954Z,99341.34
2022-08-17T06:14:01.896Z,99341.34
2022-08-17T06:16:59.138Z,99305.81
2022-08-17T06:19:56.627Z,99327.03
2022-08-17T06:22:52.567Z,99324.41
2022-08-17T06:25:50.276Z,99319.09
2022-08-17T06:28:51.329Z,99312.31
2022-08-17T06:31:40.657Z,99318.91
2022-08-17T06:34:30.251Z,99329.31
2022-08-17T06:37:48.923Z,99326.88
2022-08-17T06:41:27.634Z,99338.56
2022-08-17T06:44:43.479Z,99337.84
2022-08-17T06:48:07.422Z,99342.31
2022-08-17T06:51:09.110Z,99336.31
2022-08-17T06:54:18.231Z,99348.19
2022-08-17T06:57:31.981Z,99347.69
2022-08-17T07:00:33.573Z,99351.66
2022-08-17T07:03:41.067Z,99363.03
2022-08-17T07:06:41.287Z,99365.53
2022-08-17T07:09:36.241Z,99362.66
2022-08-17T07:12:37.549Z,99363.28
2022-08-17T07:15:44.470Z,99359.56
2022-08-17T07:18:35.974Z,99350.59
2022-08-17T07:24:51.656Z,99354.50
2022-08-17T07:27:52.602Z,99357.19
2022-08-17T07:30:49.347Z,99362.19
2022-08-17T07:33:42.339Z,99347.09
2022-08-17T07:36:34.432Z,99354.78
2022-08-17T07:39:28.951Z,99348.59
2022-08-17T07:42:19.863Z,99337.94
2022-08-17T07:45:29.014Z,99344.09
2022-08-17T07:48:28.423Z,99354.88
2022-08-17T07:51:25.160Z,99367.78
2022-08-17T07:54:25.861Z,99364.63
2022-08-17T07:57:33.311Z,99369.66
2022-08-17T08:00:32.502Z,99363.69
2022-08-17T08:03:31.702Z,99373.47
2022-08-17T08:06:26.397Z,99387.25
2022-08-17T08:09:36.305Z,99384.50
2022-08-17T08:12:47.202Z,99390.94
2022-08-17T08:15:54.793Z,99395.31
2022-08-17T08:18:55.493Z,99388.69
2022-08-17T08:22:10.851Z,99376.81
2022-08-17T08:25:11.257Z,99390.47
2022-08-17T08:28:36.781Z,99388.41
2022-08-17T08:32:13.408Z,99377.41
2022-08-17T08:35:14.636Z,99391.88
2022-08-17T08:38:53.687Z,99390.91
2022-08-17T08:42:23.707Z,99390.44
2022-08-17T08:45:28.609Z,99405.84
2022-08-17T08:48:56.260Z,99414.53
2022-08-17T08:52:01.967Z,99422.47
2022-08-17T08:55:13.329Z,99422.47
2022-08-17T08:58:31.429Z,99415.84
2022-08-17T09:01:48.905Z,99430.84
2022-08-17T09:05:13.472Z,99426.25
2022-08-17T09:08:30.111Z,99427.56
2022-08-17T09:12:01.133Z,99421.03
2022-08-17T09:15:22.606Z,99417.63
2022-08-17T09:19:01.133Z,99420.22
2022-08-17T09:22:19.168Z,99406.72
2022-08-17T09:25:16.797Z,99397.41
2022-08-17T09:28:33.340Z,99411.78
2022-08-17T09:31:48.757Z,99410.81
2022-08-17T09:34:53.585Z,99400.72
2022-08-17T09:38:04.556Z,99394.03
2022-08-17T09:41:15.490Z,99410.41
2022-08-17T09:44:26.559Z,99412.34
2022-08-17T09:47:50.589Z,99415.09
2022-08-17T09:51:09.684Z,99417.97
2022-08-17T09:54:21.365Z,99412.81
2022-08-17T09:57:56.759Z,99419.09
2022-08-17T10:01:03.877Z,99436.06
2022-08-17T10:04:29.566Z,99439.25
2022-08-17T10:07:56.013Z,99419.28
2022-08-17T10:11:05.890Z,99435.34
2022-08-17T10:14:55.076Z,99433.34
2022-08-17T10:18:21.450Z,99425.31
2022-08-17T10:21:36.222Z,99424.16
2022-08-17T10:25:21.807Z,99424.94
2022-08-17T10:28:22.829Z,99429.78
2022-08-17T10:31:36.558Z,99432.06
2022-08-17T10:35:08.537Z,99443.50
2022-08-17T10:38:34.736Z,99457.00
2022-08-17T10:41:53.075Z,99440.84
2022-08-17T10:45:04.155Z,99441.56
2022-08-17T10:48:39.860Z,99457.25
2022-08-17T10:51:43.525Z,99457.50
2022-08-17T10:55:02.629Z,99435.34
2022-08-17T10:58:22.206Z,99444.19
2022-08-17T11:01:14.975Z,99443.94
2022-08-17T11:04:42.501Z,99441.41
2022-08-17T11:08:05.229Z,99447.75
2022-08-17T11:11:35.926Z,99452.94
2022-08-17T11:15:01.116Z,99454.34
2022-08-17T11:18:54.329Z,99465.66
2022-08-17T11:22:09.309Z,99475.16
2022-08-17T11:25:22.950Z,99463.94
2022-08-17T11:28:26.085Z,99477.22
2022-08-17T11:31:44.290Z,99473.44
2022-08-17T11:34:37.081Z,99469.66
2022-08-17T11:38:03.074Z,99466.97
2022-08-17T11:41:27.452Z,99463.75
2022-08-17T11:44:43.545Z,99460.25
2022-08-17T11:48:28.985Z,99454.56
2022-08-17T11:51:28.645Z,99467.06
2022-08-17T11:54:45.744Z,99461.66
2022-08-17T11:57:34.507Z,99469.97
2022-08-17T12:00:51.526Z,99478.66
2022-08-17T12:03:53.793Z,99479.81
2022-08-17T12:07:12.809Z,99469.09
2022-08-17T12:10:02.409Z,99461.16
2022-08-17T12:12:54.198Z,99464.25
2022-08-17T12:15:50.194Z,99464.06
2022-08-17T12:18:53.396Z,99460.25
2022-08-17T12:22:04.197Z,99461.56
2022-08-17T12:25:33.244Z,99455.25
2022-08-17T12:28:37.200Z,99454.84
2022-08-17T12:31:47.246Z,99459.56
2022-08-17T12:34:46.203Z,99448.28
2022-08-17T12:37:45.984Z,99440.66
2022-08-17T12:40:38.093Z,99436.56
2022-08-17T12:43:32.877Z,99442.69
2022-08-17T12:46:25.761Z,99429.41
2022-08-17T12:49:24.660Z,99425.25
2022-08-17T12:52:32.829Z,99432.81
2022-08-17T12:55:33.775Z,99431.91
2022-08-17T12:58:31.515Z,99420.50
2022-08-17T13:01:25.074Z,99427.44
2022-08-17T13:04:20.305Z,99416.78
2022-08-17T13:07:12.105Z,99426.34
2022-08-17T13:10:02.912Z,99421.59
2022-08-17T13:12:57.408Z,99424.44
2022-08-17T13:16:15.969Z,99418.53
2022-08-17T13:19:39.857Z,99411.63
2022-08-17T13:22:34.767Z,99404.53
2022-08-17T13:25:29.517Z,99399.28
2022-08-17T13:28:30.668Z,99405.69
2022-08-17T13:31:51.912Z,99396.97
2022-08-17T13:35:13.781Z,99398.22
2022-08-17T13:38:10.206Z,99386.75
2022-08-17T13:41:01.832Z,99395.47
2022-08-17T13:43:53.779Z,99381.97
2022-08-17T13:46:56.946Z,99395.25
2022-08-17T13:49:49.524Z,99398.28
2022-08-17T13:52:43.756Z,99388.09
2022-08-17T13:55:36.457Z,99372.56
2022-08-17T13:58:39.774Z,99374.59
2022-08-17T14:01:52.819Z,99383.31
2022-08-17T14:04:46.943Z,99378.41
2022-08-17T14:07:40.654Z,99385.00
2022-08-17T14:10:30.368Z,99381.38
2022-08-17T14:13:21.226Z,99375.56
2022-08-17T14:16:13.644Z,99368.09
2022-08-17T14:19:06.254Z,99362.91
2022-08-17T14:21:58.825Z,99355.69
2022-08-17T14:24:54.148Z,99352.00
2022-08-17T14:27:52.453Z,99350.44
2022-08-17T14:30:45.247Z,99351.75
2022-08-17T14:33:39.401Z,99351.31
2022-08-17T14:36:31.825Z,99345.03
2022-08-17T14:39:23.143Z,99349.41
2022-08-17T14:42:17.821Z,99359.69
2022-08-17T14:45:31.740Z,99353.06
2022-08-17T14:48:22.162Z,99346.56
2022-08-17T14:51:14.548Z,99340.38
2022-08-17T14:54:08.767Z,99337.91
2022-08-17T14:57:23.828Z,99318.22
2022-08-17T15:00:10.312Z,99320.50
2022-08-17T15:03:03.177Z,99324.59
2022-08-17T15:05:54.308Z,99315.97
2022-08-17T15:08:47.285Z,99322.09
2022-08-17T15:11:39.549Z,99318.28
2022-08-17T15:14:33.906Z,99311.66
2022-08-17T15:17:24.524Z,99324.22
2022-08-17T15:20:23.858Z,99322.84
2022-08-17T15:23:21.952Z,99319.09
2022-08-17T15:26:14.033Z,99318.75
2022-08-17T15:29:05.410Z,99313.38
2022-08-17T15:32:02.835Z,99311.38
2022-08-17T15:34:57.408Z,99315.28
2022-08-17T15:37:51.559Z,99309.81
2022-08-17T15:40:45.369Z,99293.81
2022-08-17T15:43:39.425Z,99298.50
2022-08-17T15:46:31.484Z,99302.00
2022-08-17T15:49:27.540Z,99303.50
2022-08-17T15:52:30.314Z,99300.88
2022-08-17T15:55:24.225Z,99301.81
2022-08-17T15:58:20.083Z,99291.31
2022-08-17T16:03:01.077Z,99275.13
2022-08-17T16:04:33.908Z,99294.19
2022-08-17T16:07:26.716Z,99286.38
2022-08-17T16:10:19.862Z,99285.97
2022-08-17T16:13:17.420Z,99287.66
2022-08-17T16:16:14.799Z,99294.34
2022-08-17T16:19:04.323Z,99290.88
2022-08-17T16:21:55.730Z,99290.78
2022-08-17T16:24:56.953Z,99301.00
2022-08-17T16:27:53.494Z,99292.09
2022-08-17T16:30:46.571Z,99283.09
2022-08-17T16:38:07.113Z,99275.50
2022-08-17T16:40:56.763Z,99272.81
2022-08-17T16:43:47.156Z,99275.72
2022-08-17T16:46:40.296Z,99277.84
2022-08-17T16:49:38.096Z,99284.22
2022-08-17T16:52:32.297Z,99290.56
2022-08-17T16:55:25.592Z,99285.88
2022-08-17T16:58:15.882Z,99291.38
2022-08-17T17:01:07.810Z,99285.06
2022-08-17T17:04:04.476Z,99284.81
2022-08-17T17:07:34.466Z,99291.50
2022-08-17T17:10:41.429Z,99289.31
2022-08-17T17:13:49.152Z,99296.00
2022-08-17T17:17:03.897Z,99280.50
2022-08-17T17:20:21.698Z,99292.41
2022-08-17T17:23:34.517Z,99287.47
2022-08-17T17:26:59.124Z,99279.69
2022-08-17T17:30:16.085Z,99278.25
2022-08-17T17:33:18.466Z,99271.78
2022-08-17T17:36:36.418Z,99271.53
2022-08-17T17:39:52.561Z,99284.31
2022-08-17T17:42:44.674Z,99281.69
2022-08-17T17:46:07.699Z,99278.00
2022-08-17T17:49:14.435Z,99278.50
2022-08-17T17:52:19.081Z,99276.47
2022-08-17T17:55:59.911Z,99280.00
2022-08-17T17:59:18.138Z,99274.47
2022-08-17T18:02:51.527Z,99265.00
2022-08-17T18:06:12.494Z,99273.03
2022-08-17T18:09:40.763Z,99272.44
2022-08-17T18:13:11.936Z,99280.22
2022-08-17T18:16:05.751Z,99286.56
2022-08-17T18:18:58.022Z,99293.59
2022-08-17T18:22:22.166Z,99297.00
2022-08-17T18:25:44.902Z,99293.69
2022-08-17T18:28:43.223Z,99285.97
2022-08-17T18:31:34.789Z,99285.84
2022-08-17T18:34:47.249Z,99279.75
2022-08-17T18:37:45.717Z,99288.13
2022-08-17T18:40:39.165Z,99288.00
2022-08-17T18:43:52.966Z,99289.41
2022-08-17T18:46:45.317Z,99289.66
2022-08-17T18:49:36.922Z,99291.44
2022-08-17T18:52:33.732Z,99287.31
2022-08-17T18:55:30.061Z,99309.31
2022-08-17T18:58:26.887Z,99295.34
2022-08-17T19:01:21.510Z,99306.47
2022-08-17T19:04:40.066Z,99306.50
2022-08-17T19:07:48.853Z,99311.41
2022-08-17T19:10:46.270Z,99326.19
2022-08-17T19:13:58.230Z,99328.44
2022-08-17T19:17:05.485Z,99326.91
2022-08-17T19:20:19.819Z,99330.50
2022-08-17T19:23:30.408Z,99338.63
2022-08-17T19:26:50.730Z,99335.38
2022-08-17T19:30:01.652Z,99346.34
2022-08-17T19:32:58.313Z,99331.75
2022-08-17T19:36:07.941Z,99337.03
2022-08-17T19:39:26.460Z,99338.50
2022-08-17T19:42:56.293Z,99343.94
2022-08-17T19:46:36.587Z,99345.25
2022-08-17T19:50:02.299Z,99349.53
2022-08-17T19:54:05.031Z,99371.22
2022-08-17T19:57:20.183Z,99342.47
2022-08-17T20:00:20.897Z,99345.09
2022-08-17T20:03:34.741Z,99350.75
2022-08-17T20:06:27.094Z,99361.31
2022-08-17T20:09:44.340Z,99356.03
2022-08-17T20:12:43.981Z,99357.69
2022-08-17T20:15:39.158Z,99368.66
2022-08-17T20:18:53.419Z,99359.97
2022-08-17T20:22:11.305Z,99365.06
2022-08-17T20:25:30.911Z,99362.97
2022-08-17T20:28:31.716Z,99349.84
2022-08-17T20:31:50.512Z,99353.22
2022-08-17T20:34:42.576Z,99348.63
2022-08-17T20:37:37.126Z,99351.63
2022-08-17T20:40:41.752Z,99341.91
2022-08-17T20:43:43.491Z,99346.41
2022-08-17T20:46:51.546Z,99340.63
2022-08-17T20:49:54.934Z,99352.28
2022-08-17T20:53:00.811Z,99349.06
2022-08-17T20:55:55.718Z,99349.72
2022-08-17T20:58:48.227Z,99342.75
2022-08-17T21:01:41.119Z,99349.72
2022-08-17T21:04:54.569Z,99347.56
2022-08-17T21:07:58.113Z,99345.28
2022-08-17T21:10:50.215Z,99339.91
2022-08-17T21:14:19.773Z,99347.28
2022-08-17T21:17:43.090Z,99350.53
2022-08-17T21:21:17.776Z,99369.00
2022-08-17T21:24:41.891Z,99369.13
2022-08-17T21:28:13.338Z,99375.00
2022-08-17T21:31:09.723Z,99367.41
2022-08-17T21:34:27.058Z,99369.66
2022-08-17T21:37:29.482Z,99373.31
2022-08-17T21:40:32.072Z,99368.00
2022-08-17T21:43:32.448Z,99374.41
2022-08-17T21:46:31.174Z,99383.22
2022-08-17T21:49:28.612Z,99384.94
2022-08-17T21:52:23.605Z,99396.81
2022-08-17T21:55:30.303Z,99387.13
2022-08-17T21:58:36.699Z,99390.59
2022-08-17T22:01:39.107Z,99382.88
2022-08-17T22:04:38.868Z,99386.34
2022-08-17T22:07:53.181Z,99380.06
2022-08-17T22:10:46.028Z,99376.34
2022-08-17T22:13:40.091Z,99387.84
2022-08-17T22:16:31.574Z,99387.13
2022-08-17T22:19:22.585Z,99383.31
2022-08-17T22:22:34.105Z,99382.31
2022-08-17T22:25:27.949Z,99378.50
2022-08-17T22:28:52.327Z,99372.50
2022-08-17T22:31:57.532Z,99381.22
2022-08-17T22:35:15.721Z,99361.13
2022-08-17T22:38:21.938Z,99399.66
2022-08-17T22:41:26.862Z,99394.38
2022-08-17T22:44:32.906Z,99407.75
2022-08-17T22:47:39.482Z,99414.75
2022-08-17T22:50:31.585Z,99421.19
2022-08-17T22:53:42.726Z,99410.84
2022-08-17T22:56:51.228Z,99421.75
2022-08-17T22:59:52.689Z,99422.06
2022-08-17T23:03:23.732Z,99419.44
2022-08-17T23:06:14.768Z,99424.47
2022-08-17T23:09:09.055Z,99429.78
2022-08-17T23:12:01.929Z,99408.31
2022-08-17T23:14:57.386Z,99419.38
2022-08-17T23:17:48.037Z,99425.78
2022-08-17T23:20:42.412Z,99422.06
2022-08-17T23:23:33.824Z,99427.72
2022-08-17T23:26:27.794Z,99426.44
2022-08-17T23:29:21.296Z,99431.63
2022-08-17T23:32:14.939Z,99433.38
2022-08-17T23:35:05.280Z,99433.41
2022-08-17T23:37:58.709Z,99428.84
2022-08-17T23:40:49.351Z,99433.75
2022-08-17T23:43:44.053Z,99438.41
2022-08-17T23:46:34.714Z,99444.59
2022-08-17T23:49:25.127Z,99441.56
2022-08-17T23:52:16.631Z,99441.56
2022-08-17T23:55:08.379Z,99439.09
2022-08-17T23:57:59.374Z,99430.50
